sensor_id;sensor_type;location;lat;lon;timestamp;P1;durP1;ratioP1;P2;durP2;ratioP2
39490;SDS011;25175;50.140;18.990;2022-10-16T00:02:19;29.88;;;14.20;;
39490;SDS011;25175;50.140;18.990;2022-10-16T00:05:22;32.33;;;16.27;;
39490;SDS011;25175;50.140;18.990;2022-10-16T00:08:24;29.63;;;14.60;;
39490;SDS011;25175;50.140;18.990;2022-10-16T00:11:27;36.30;;;15.68;;
39490;SDS011;25175;50.140;18.990;2022-10-16T00:14:31;26.73;;;13.68;;
39490;SDS011;25175;50.140;18.990;2022-10-16T00:17:35;27.25;;;12.85;;
39490;SDS011;25175;50.140;18.990;2022-10-16T00:20:37;34.08;;;13.93;;
39490;SDS011;25175;50.140;18.990;2022-10-16T00:23:39;27.65;;;13.02;;
39490;SDS011;25175;50.140;18.990;2022-10-16T00:26:42;29.75;;;13.02;;
39490;SDS011;25175;50.140;18.990;2022-10-16T00:29:44;26.27;;;13.05;;
39490;SDS011;25175;50.140;18.990;2022-10-16T00:32:48;30.65;;;12.45;;
39490;SDS011;25175;50.140;18.990;2022-10-16T00:35:50;26.85;;;12.88;;
39490;SDS011;25175;50.140;18.990;2022-10-16T00:38:53;27.17;;;12.25;;
39490;SDS011;25175;50.140;18.990;2022-10-16T00:41:56;24.27;;;12.20;;
39490;SDS011;25175;50.140;18.990;2022-10-16T00:44:58;27.63;;;12.27;;
39490;SDS011;25175;50.140;18.990;2022-10-16T00:48:02;30.25;;;12.90;;
39490;SDS011;25175;50.140;18.990;2022-10-16T00:51:05;26.33;;;12.07;;
39490;SDS011;25175;50.140;18.990;2022-10-16T00:54:10;24.83;;;12.75;;
39490;SDS011;25175;50.140;18.990;2022-10-16T00:57:15;26.17;;;13.43;;
39490;SDS011;25175;50.140;18.990;2022-10-16T01:00:19;26.20;;;13.02;;
39490;SDS011;25175;50.140;18.990;2022-10-16T01:03:25;24.10;;;13.00;;
39490;SDS011;25175;50.140;18.990;2022-10-16T01:06:31;26.17;;;12.13;;
39490;SDS011;25175;50.140;18.990;2022-10-16T01:09:46;26.80;;;11.98;;
39490;SDS011;25175;50.140;18.990;2022-10-16T01:13:01;22.38;;;11.15;;
39490;SDS011;25175;50.140;18.990;2022-10-16T01:16:09;24.13;;;11.10;;
39490;SDS011;25175;50.140;18.990;2022-10-16T01:19:20;29.13;;;12.02;;
39490;SDS011;25175;50.140;18.990;2022-10-16T01:22:37;26.98;;;13.15;;
39490;SDS011;25175;50.140;18.990;2022-10-16T01:26:02;24.15;;;12.50;;
39490;SDS011;25175;50.140;18.990;2022-10-16T01:29:17;25.20;;;12.30;;
39490;SDS011;25175;50.140;18.990;2022-10-16T01:32:28;26.33;;;12.65;;
39490;SDS011;25175;50.140;18.990;2022-10-16T01:35:36;23.38;;;11.45;;
39490;SDS011;25175;50.140;18.990;2022-10-16T01:38:41;27.17;;;11.87;;
39490;SDS011;25175;50.140;18.990;2022-10-16T01:41:47;24.00;;;11.95;;
39490;SDS011;25175;50.140;18.990;2022-10-16T01:44:56;26.00;;;12.32;;
39490;SDS011;25175;50.140;18.990;2022-10-16T01:48:01;28.98;;;11.73;;
39490;SDS011;25175;50.140;18.990;2022-10-16T01:54:12;23.05;;;11.85;;
39490;SDS011;25175;50.140;18.990;2022-10-16T01:57:16;25.60;;;12.65;;
39490;SDS011;25175;50.140;18.990;2022-10-16T02:00:25;20.80;;;12.38;;
39490;SDS011;25175;50.140;18.990;2022-10-16T02:03:28;20.52;;;11.60;;
39490;SDS011;25175;50.140;18.990;2022-10-16T02:06:31;24.48;;;11.55;;
39490;SDS011;25175;50.140;18.990;2022-10-16T02:09:33;22.13;;;11.98;;
39490;SDS011;25175;50.140;18.990;2022-10-16T02:12:37;27.17;;;12.55;;
39490;SDS011;25175;50.140;18.990;2022-10-16T02:15:45;32.80;;;13.65;;
39490;SDS011;25175;50.140;18.990;2022-10-16T02:18:47;30.35;;;12.75;;
39490;SDS011;25175;50.140;18.990;2022-10-16T02:21:51;29.13;;;14.82;;
39490;SDS011;25175;50.140;18.990;2022-10-16T02:24:58;27.90;;;13.32;;
39490;SDS011;25175;50.140;18.990;2022-10-16T02:28:05;27.92;;;13.35;;
39490;SDS011;25175;50.140;18.990;2022-10-16T02:31:15;24.75;;;12.68;;
39490;SDS011;25175;50.140;18.990;2022-10-16T02:34:22;27.95;;;13.23;;
39490;SDS011;25175;50.140;18.990;2022-10-16T02:37:27;26.23;;;13.23;;
39490;SDS011;25175;50.140;18.990;2022-10-16T02:40:30;29.45;;;13.45;;
39490;SDS011;25175;50.140;18.990;2022-10-16T02:43:33;24.08;;;12.57;;
39490;SDS011;25175;50.140;18.990;2022-10-16T02:46:37;23.88;;;12.68;;
39490;SDS011;25175;50.140;18.990;2022-10-16T02:49:39;30.25;;;13.05;;
39490;SDS011;25175;50.140;18.990;2022-10-16T02:52:41;25.73;;;12.65;;
39490;SDS011;25175;50.140;18.990;2022-10-16T02:55:44;23.38;;;12.63;;
39490;SDS011;25175;50.140;18.990;2022-10-16T02:58:46;23.73;;;13.32;;
39490;SDS011;25175;50.140;18.990;2022-10-16T03:01:50;24.83;;;13.13;;
39490;SDS011;25175;50.140;18.990;2022-10-16T03:04:53;30.52;;;14.50;;
39490;SDS011;25175;50.140;18.990;2022-10-16T03:07:55;32.03;;;15.43;;
39490;SDS011;25175;50.140;18.990;2022-10-16T03:11:00;35.53;;;15.80;;
39490;SDS011;25175;50.140;18.990;2022-10-16T03:14:03;40.00;;;16.25;;
39490;SDS011;25175;50.140;18.990;2022-10-16T03:17:06;32.15;;;14.38;;
39490;SDS011;25175;50.140;18.990;2022-10-16T03:20:09;33.22;;;15.95;;
39490;SDS011;25175;50.140;18.990;2022-10-16T03:23:12;32.85;;;15.38;;
39490;SDS011;25175;50.140;18.990;2022-10-16T03:26:14;28.77;;;14.75;;
39490;SDS011;25175;50.140;18.990;2022-10-16T03:29:16;26.67;;;14.27;;
39490;SDS011;25175;50.140;18.990;2022-10-16T03:32:20;30.58;;;15.20;;
39490;SDS011;25175;50.140;18.990;2022-10-16T03:35:23;29.83;;;14.23;;
39490;SDS011;25175;50.140;18.990;2022-10-16T03:38:26;25.40;;;13.27;;
39490;SDS011;25175;50.140;18.990;2022-10-16T03:41:28;29.60;;;13.73;;
39490;SDS011;25175;50.140;18.990;2022-10-16T03:44:31;30.92;;;13.90;;
39490;SDS011;25175;50.140;18.990;2022-10-16T03:47:34;21.13;;;12.20;;
39490;SDS011;25175;50.140;18.990;2022-10-16T03:50:36;29.92;;;12.32;;
39490;SDS011;25175;50.140;18.990;2022-10-16T03:53:39;59.95;;;25.13;;
39490;SDS011;25175;50.140;18.990;2022-10-16T03:56:41;108.60;;;42.90;;
39490;SDS011;25175;50.140;18.990;2022-10-16T03:59:43;98.47;;;46.67;;
39490;SDS011;25175;50.140;18.990;2022-10-16T04:02:47;83.25;;;37.95;;
39490;SDS011;25175;50.140;18.990;2022-10-16T04:05:50;69.80;;;31.98;;
39490;SDS011;25175;50.140;18.990;2022-10-16T04:08:52;71.03;;;33.63;;
39490;SDS011;25175;50.140;18.990;2022-10-16T04:11:54;68.75;;;31.92;;
39490;SDS011;25175;50.140;18.990;2022-10-16T04:14:57;63.80;;;29.75;;
39490;SDS011;25175;50.140;18.990;2022-10-16T04:18:01;55.45;;;27.35;;
39490;SDS011;25175;50.140;18.990;2022-10-16T04:21:03;56.83;;;28.73;;
39490;SDS011;25175;50.140;18.990;2022-10-16T04:24:06;65.78;;;30.60;;
39490;SDS011;25175;50.140;18.990;2022-10-16T04:27:08;70.88;;;29.77;;
39490;SDS011;25175;50.140;18.990;2022-10-16T04:30:10;69.80;;;31.73;;
39490;SDS011;25175;50.140;18.990;2022-10-16T04:33:14;69.18;;;30.50;;
39490;SDS011;25175;50.140;18.990;2022-10-16T04:36:16;61.10;;;29.90;;
39490;SDS011;25175;50.140;18.990;2022-10-16T04:39:19;64.72;;;31.38;;
39490;SDS011;25175;50.140;18.990;2022-10-16T04:42:21;74.00;;;34.75;;
39490;SDS011;25175;50.140;18.990;2022-10-16T04:45:24;84.35;;;40.03;;
39490;SDS011;25175;50.140;18.990;2022-10-16T04:48:27;83.57;;;40.45;;
39490;SDS011;25175;50.140;18.990;2022-10-16T04:51:30;72.75;;;35.95;;
39490;SDS011;25175;50.140;18.990;2022-10-16T04:54:32;74.45;;;34.65;;
39490;SDS011;25175;50.140;18.990;2022-10-16T04:57:34;67.68;;;32.78;;
39490;SDS011;25175;50.140;18.990;2022-10-16T05:00:36;65.20;;;31.73;;
39490;SDS011;25175;50.140;18.990;2022-10-16T05:03:41;52.30;;;27.60;;
39490;SDS011;25175;50.140;18.990;2022-10-16T05:06:43;65.63;;;30.17;;
39490;SDS011;25175;50.140;18.990;2022-10-16T05:09:45;61.78;;;29.05;;
39490;SDS011;25175;50.140;18.990;2022-10-16T05:12:48;57.97;;;27.48;;
39490;SDS011;25175;50.140;18.990;2022-10-16T05:15:50;53.13;;;26.50;;
39490;SDS011;25175;50.140;18.990;2022-10-16T05:18:54;53.30;;;24.33;;
39490;SDS011;25175;50.140;18.990;2022-10-16T05:21:57;53.70;;;25.60;;
39490;SDS011;25175;50.140;18.990;2022-10-16T05:25:00;52.58;;;23.95;;
39490;SDS011;25175;50.140;18.990;2022-10-16T05:28:02;58.08;;;26.80;;
39490;SDS011;25175;50.140;18.990;2022-10-16T05:31:05;54.70;;;27.05;;
39490;SDS011;25175;50.140;18.990;2022-10-16T05:34:09;56.65;;;27.17;;
39490;SDS011;25175;50.140;18.990;2022-10-16T05:37:12;63.97;;;32.08;;
39490;SDS011;25175;50.140;18.990;2022-10-16T05:40:14;77.07;;;40.17;;
39490;SDS011;25175;50.140;18.990;2022-10-16T05:43:17;82.28;;;41.42;;
39490;SDS011;25175;50.140;18.990;2022-10-16T05:46:19;86.10;;;43.72;;
39490;SDS011;25175;50.140;18.990;2022-10-16T05:49:23;105.40;;;49.88;;
39490;SDS011;25175;50.140;18.990;2022-10-16T05:52:26;89.53;;;45.20;;
39490;SDS011;25175;50.140;18.990;2022-10-16T05:55:29;103.43;;;48.42;;
39490;SDS011;25175;50.140;18.990;2022-10-16T05:58:32;85.43;;;43.13;;
39490;SDS011;25175;50.140;18.990;2022-10-16T06:01:36;78.70;;;39.38;;
39490;SDS011;25175;50.140;18.990;2022-10-16T06:04:39;73.03;;;36.13;;
39490;SDS011;25175;50.140;18.990;2022-10-16T06:07:42;79.78;;;35.75;;
39490;SDS011;25175;50.140;18.990;2022-10-16T06:10:45;87.93;;;38.45;;
39490;SDS011;25175;50.140;18.990;2022-10-16T06:13:48;76.95;;;38.63;;
39490;SDS011;25175;50.140;18.990;2022-10-16T06:16:51;88.82;;;42.10;;
39490;SDS011;25175;50.140;18.990;2022-10-16T06:19:55;101.60;;;47.35;;
39490;SDS011;25175;50.140;18.990;2022-10-16T06:22:57;89.20;;;42.95;;
39490;SDS011;25175;50.140;18.990;2022-10-16T06:26:04;85.93;;;41.63;;
39490;SDS011;25175;50.140;18.990;2022-10-16T06:29:08;96.18;;;46.00;;
39490;SDS011;25175;50.140;18.990;2022-10-16T06:32:10;85.13;;;42.88;;
39490;SDS011;25175;50.140;18.990;2022-10-16T06:35:14;88.88;;;40.03;;
39490;SDS011;25175;50.140;18.990;2022-10-16T06:38:16;76.60;;;35.97;;
39490;SDS011;25175;50.140;18.990;2022-10-16T06:41:19;67.13;;;32.90;;
39490;SDS011;25175;50.140;18.990;2022-10-16T06:44:23;67.18;;;32.17;;
39490;SDS011;25175;50.140;18.990;2022-10-16T06:47:25;46.78;;;25.08;;
39490;SDS011;25175;50.140;18.990;2022-10-16T06:50:29;48.17;;;23.33;;
39490;SDS011;25175;50.140;18.990;2022-10-16T06:53:32;39.17;;;20.92;;
39490;SDS011;25175;50.140;18.990;2022-10-16T06:56:35;42.10;;;22.52;;
39490;SDS011;25175;50.140;18.990;2022-10-16T06:59:38;43.50;;;21.45;;
39490;SDS011;25175;50.140;18.990;2022-10-16T07:02:40;49.65;;;19.75;;
39490;SDS011;25175;50.140;18.990;2022-10-16T07:05:44;40.25;;;17.83;;
39490;SDS011;25175;50.140;18.990;2022-10-16T07:08:46;32.63;;;16.20;;
39490;SDS011;25175;50.140;18.990;2022-10-16T07:11:49;32.10;;;17.05;;
39490;SDS011;25175;50.140;18.990;2022-10-16T07:14:52;35.50;;;18.90;;
39490;SDS011;25175;50.140;18.990;2022-10-16T07:17:55;35.97;;;18.08;;
39490;SDS011;25175;50.140;18.990;2022-10-16T07:21:03;30.35;;;16.92;;
39490;SDS011;25175;50.140;18.990;2022-10-16T07:24:11;33.13;;;15.93;;
39490;SDS011;25175;50.140;18.990;2022-10-16T07:27:14;33.90;;;15.88;;
39490;SDS011;25175;50.140;18.990;2022-10-16T07:30:17;25.52;;;13.68;;
39490;SDS011;25175;50.140;18.990;2022-10-16T07:33:19;21.45;;;11.30;;
39490;SDS011;25175;50.140;18.990;2022-10-16T07:36:23;17.38;;;10.27;;
39490;SDS011;25175;50.140;18.990;2022-10-16T07:39:25;18.50;;;9.57;;
39490;SDS011;25175;50.140;18.990;2022-10-16T07:42:28;17.75;;;9.10;;
39490;SDS011;25175;50.140;18.990;2022-10-16T07:45:31;19.58;;;8.43;;
39490;SDS011;25175;50.140;18.990;2022-10-16T07:48:33;17.33;;;9.20;;
39490;SDS011;25175;50.140;18.990;2022-10-16T07:51:38;14.75;;;8.95;;
39490;SDS011;25175;50.140;18.990;2022-10-16T07:54:40;19.02;;;9.15;;
39490;SDS011;25175;50.140;18.990;2022-10-16T07:57:42;16.63;;;8.90;;
39490;SDS011;25175;50.140;18.990;2022-10-16T08:00:44;17.83;;;9.07;;
39490;SDS011;25175;50.140;18.990;2022-10-16T08:03:48;17.05;;;9.23;;
39490;SDS011;25175;50.140;18.990;2022-10-16T08:06:53;17.23;;;8.95;;
39490;SDS011;25175;50.140;18.990;2022-10-16T08:09:56;15.30;;;8.73;;
39490;SDS011;25175;50.140;18.990;2022-10-16T08:12:59;19.75;;;9.20;;
39490;SDS011;25175;50.140;18.990;2022-10-16T08:16:01;18.88;;;9.77;;
39490;SDS011;25175;50.140;18.990;2022-10-16T08:19:08;18.52;;;8.85;;
39490;SDS011;25175;50.140;18.990;2022-10-16T08:22:12;18.60;;;9.10;;
39490;SDS011;25175;50.140;18.990;2022-10-16T08:25:14;16.85;;;8.35;;
39490;SDS011;25175;50.140;18.990;2022-10-16T08:28:16;17.30;;;8.23;;
39490;SDS011;25175;50.140;18.990;2022-10-16T08:31:19;15.23;;;7.88;;
39490;SDS011;25175;50.140;18.990;2022-10-16T08:34:22;13.38;;;8.05;;
39490;SDS011;25175;50.140;18.990;2022-10-16T08:37:29;20.20;;;8.10;;
39490;SDS011;25175;50.140;18.990;2022-10-16T08:40:32;15.30;;;8.00;;
39490;SDS011;25175;50.140;18.990;2022-10-16T08:43:43;17.30;;;8.05;;
39490;SDS011;25175;50.140;18.990;2022-10-16T08:46:58;15.68;;;7.95;;
39490;SDS011;25175;50.140;18.990;2022-10-16T08:50:08;18.67;;;8.40;;
39490;SDS011;25175;50.140;18.990;2022-10-16T08:53:15;15.50;;;7.85;;
39490;SDS011;25175;50.140;18.990;2022-10-16T08:56:23;13.45;;;7.65;;
39490;SDS011;25175;50.140;18.990;2022-10-16T08:59:27;16.15;;;7.57;;
39490;SDS011;25175;50.140;18.990;2022-10-16T09:02:32;13.90;;;7.55;;
39490;SDS011;25175;50.140;18.990;2022-10-16T09:09:38;14.57;;;6.97;;
39490;SDS011;25175;50.140;18.990;2022-10-16T09:12:49;14.02;;;6.95;;
39490;SDS011;25175;50.140;18.990;2022-10-16T09:15:59;12.15;;;6.95;;
39490;SDS011;25175;50.140;18.990;2022-10-16T09:19:13;17.52;;;7.75;;
39490;SDS011;25175;50.140;18.990;2022-10-16T09:22:23;12.20;;;7.07;;
39490;SDS011;25175;50.140;18.990;2022-10-16T09:25:31;14.00;;;7.18;;
39490;SDS011;25175;50.140;18.990;2022-10-16T09:28:35;20.33;;;7.35;;
39490;SDS011;25175;50.140;18.990;2022-10-16T09:31:37;16.17;;;7.28;;
39490;SDS011;25175;50.140;18.990;2022-10-16T09:34:41;14.95;;;6.85;;
39490;SDS011;25175;50.140;18.990;2022-10-16T09:37:45;12.55;;;7.30;;
39490;SDS011;25175;50.140;18.990;2022-10-16T09:40:52;13.80;;;7.28;;
39490;SDS011;25175;50.140;18.990;2022-10-16T09:43:55;13.45;;;6.43;;
39490;SDS011;25175;50.140;18.990;2022-10-16T09:47:01;13.52;;;6.38;;
39490;SDS011;25175;50.140;18.990;2022-10-16T09:50:05;9.88;;;6.68;;
39490;SDS011;25175;50.140;18.990;2022-10-16T09:53:23;10.00;;;6.50;;
39490;SDS011;25175;50.140;18.990;2022-10-16T09:56:27;13.57;;;6.78;;
39490;SDS011;25175;50.140;18.990;2022-10-16T09:59:31;11.35;;;6.75;;
39490;SDS011;25175;50.140;18.990;2022-10-16T10:02:34;13.77;;;6.32;;
39490;SDS011;25175;50.140;18.990;2022-10-16T10:05:40;10.05;;;6.25;;
39490;SDS011;25175;50.140;18.990;2022-10-16T10:08:52;15.40;;;7.03;;
39490;SDS011;25175;50.140;18.990;2022-10-16T10:11:57;10.65;;;6.38;;
39490;SDS011;25175;50.140;18.990;2022-10-16T10:15:04;11.75;;;6.43;;
39490;SDS011;25175;50.140;18.990;2022-10-16T10:18:15;11.57;;;5.68;;
39490;SDS011;25175;50.140;18.990;2022-10-16T10:21:20;11.10;;;6.30;;
39490;SDS011;25175;50.140;18.990;2022-10-16T10:24:22;15.50;;;6.50;;
39490;SDS011;25175;50.140;18.990;2022-10-16T10:27:28;11.07;;;6.20;;
39490;SDS011;25175;50.140;18.990;2022-10-16T10:30:39;12.95;;;7.07;;
39490;SDS011;25175;50.140;18.990;2022-10-16T10:33:47;10.88;;;6.40;;
39490;SDS011;25175;50.140;18.990;2022-10-16T10:36:56;12.63;;;6.50;;
39490;SDS011;25175;50.140;18.990;2022-10-16T10:40:08;11.55;;;6.68;;
39490;SDS011;25175;50.140;18.990;2022-10-16T10:43:25;14.13;;;7.78;;
39490;SDS011;25175;50.140;18.990;2022-10-16T10:46:43;12.52;;;7.07;;
39490;SDS011;25175;50.140;18.990;2022-10-16T10:49:54;14.88;;;7.00;;
39490;SDS011;25175;50.140;18.990;2022-10-16T10:53:05;14.38;;;6.32;;
39490;SDS011;25175;50.140;18.990;2022-10-16T10:56:22;10.85;;;6.25;;
39490;SDS011;25175;50.140;18.990;2022-10-16T11:03:22;10.80;;;6.13;;
39490;SDS011;25175;50.140;18.990;2022-10-16T11:06:36;12.95;;;6.47;;
39490;SDS011;25175;50.140;18.990;2022-10-16T11:12:48;11.57;;;6.55;;
39490;SDS011;25175;50.140;18.990;2022-10-16T11:19:02;14.68;;;6.70;;
39490;SDS011;25175;50.140;18.990;2022-10-16T11:22:13;12.65;;;6.25;;
39490;SDS011;25175;50.140;18.990;2022-10-16T11:25:20;10.45;;;6.10;;
39490;SDS011;25175;50.140;18.990;2022-10-16T11:28:26;12.02;;;6.50;;
39490;SDS011;25175;50.140;18.990;2022-10-16T11:31:34;12.82;;;6.15;;
39490;SDS011;25175;50.140;18.990;2022-10-16T11:34:41;13.10;;;6.35;;
39490;SDS011;25175;50.140;18.990;2022-10-16T11:37:49;11.00;;;6.55;;
39490;SDS011;25175;50.140;18.990;2022-10-16T11:40:56;10.38;;;6.30;;
39490;SDS011;25175;50.140;18.990;2022-10-16T11:44:16;11.52;;;6.60;;
39490;SDS011;25175;50.140;18.990;2022-10-16T11:47:30;11.70;;;6.72;;
39490;SDS011;25175;50.140;18.990;2022-10-16T11:50:37;10.80;;;6.80;;
39490;SDS011;25175;50.140;18.990;2022-10-16T11:53:45;10.38;;;6.32;;
39490;SDS011;25175;50.140;18.990;2022-10-16T11:56:54;11.75;;;6.47;;
39490;SDS011;25175;50.140;18.990;2022-10-16T12:00:02;13.25;;;6.05;;
39490;SDS011;25175;50.140;18.990;2022-10-16T12:03:17;11.55;;;6.57;;
39490;SDS011;25175;50.140;18.990;2022-10-16T12:06:26;10.73;;;6.55;;
39490;SDS011;25175;50.140;18.990;2022-10-16T12:09:34;11.13;;;6.65;;
39490;SDS011;25175;50.140;18.990;2022-10-16T12:12:40;11.95;;;6.90;;
39490;SDS011;25175;50.140;18.990;2022-10-16T12:15:45;11.02;;;6.70;;
39490;SDS011;25175;50.140;18.990;2022-10-16T12:18:49;11.70;;;6.35;;
39490;SDS011;25175;50.140;18.990;2022-10-16T12:22:15;12.68;;;6.13;;
39490;SDS011;25175;50.140;18.990;2022-10-16T12:25:21;11.55;;;6.55;;
39490;SDS011;25175;50.140;18.990;2022-10-16T12:28:26;14.80;;;7.35;;
39490;SDS011;25175;50.140;18.990;2022-10-16T12:31:36;15.20;;;6.93;;
39490;SDS011;25175;50.140;18.990;2022-10-16T12:34:46;13.68;;;6.60;;
39490;SDS011;25175;50.140;18.990;2022-10-16T12:37:50;11.93;;;6.45;;
39490;SDS011;25175;50.140;18.990;2022-10-16T12:40:58;12.30;;;7.03;;
39490;SDS011;25175;50.140;18.990;2022-10-16T12:44:01;10.80;;;6.68;;
39490;SDS011;25175;50.140;18.990;2022-10-16T12:47:04;10.73;;;6.97;;
39490;SDS011;25175;50.140;18.990;2022-10-16T12:53:43;14.45;;;7.90;;
39490;SDS011;25175;50.140;18.990;2022-10-16T12:56:49;13.80;;;7.18;;
39490;SDS011;25175;50.140;18.990;2022-10-16T13:00:03;15.68;;;7.55;;
39490;SDS011;25175;50.140;18.990;2022-10-16T13:03:25;13.52;;;6.68;;
39490;SDS011;25175;50.140;18.990;2022-10-16T13:06:55;13.02;;;6.80;;
39490;SDS011;25175;50.140;18.990;2022-10-16T13:10:11;13.40;;;6.60;;
39490;SDS011;25175;50.140;18.990;2022-10-16T13:13:32;10.98;;;6.68;;
39490;SDS011;25175;50.140;18.990;2022-10-16T13:16:55;13.18;;;7.15;;
39490;SDS011;25175;50.140;18.990;2022-10-16T13:20:12;13.30;;;7.10;;
39490;SDS011;25175;50.140;18.990;2022-10-16T13:23:21;13.52;;;8.25;;
39490;SDS011;25175;50.140;18.990;2022-10-16T13:26:31;13.73;;;6.90;;
39490;SDS011;25175;50.140;18.990;2022-10-16T13:29:42;12.65;;;7.45;;
39490;SDS011;25175;50.140;18.990;2022-10-16T13:32:45;20.20;;;8.15;;
39490;SDS011;25175;50.140;18.990;2022-10-16T13:35:49;17.58;;;7.50;;
39490;SDS011;25175;50.140;18.990;2022-10-16T13:39:00;21.60;;;8.65;;
39490;SDS011;25175;50.140;18.990;2022-10-16T13:42:13;14.07;;;7.68;;
39490;SDS011;25175;50.140;18.990;2022-10-16T13:45:17;13.80;;;7.40;;
39490;SDS011;25175;50.140;18.990;2022-10-16T13:48:21;14.98;;;7.80;;
39490;SDS011;25175;50.140;18.990;2022-10-16T13:51:23;12.82;;;7.50;;
39490;SDS011;25175;50.140;18.990;2022-10-16T13:54:26;14.48;;;7.50;;
39490;SDS011;25175;50.140;18.990;2022-10-16T13:57:31;14.85;;;7.35;;
39490;SDS011;25175;50.140;18.990;2022-10-16T14:00:34;13.10;;;7.30;;
39490;SDS011;25175;50.140;18.990;2022-10-16T14:03:36;12.25;;;7.20;;
39490;SDS011;25175;50.140;18.990;2022-10-16T14:06:40;10.82;;;6.90;;
39490;SDS011;25175;50.140;18.990;2022-10-16T14:09:47;13.77;;;7.35;;
39490;SDS011;25175;50.140;18.990;2022-10-16T14:12:56;13.07;;;7.38;;
39490;SDS011;25175;50.140;18.990;2022-10-16T14:16:02;14.52;;;7.65;;
39490;SDS011;25175;50.140;18.990;2022-10-16T14:19:13;12.02;;;7.60;;
39490;SDS011;25175;50.140;18.990;2022-10-16T14:22:26;16.95;;;8.40;;
39490;SDS011;25175;50.140;18.990;2022-10-16T14:25:32;16.15;;;8.25;;
39490;SDS011;25175;50.140;18.990;2022-10-16T14:28:36;18.58;;;8.23;;
39490;SDS011;25175;50.140;18.990;2022-10-16T14:31:41;14.20;;;8.10;;
39490;SDS011;25175;50.140;18.990;2022-10-16T14:34:52;12.52;;;7.40;;
39490;SDS011;25175;50.140;18.990;2022-10-16T14:37:56;20.00;;;9.43;;
39490;SDS011;25175;50.140;18.990;2022-10-16T14:40:59;12.98;;;8.45;;
39490;SDS011;25175;50.140;18.990;2022-10-16T14:44:04;14.55;;;8.05;;
39490;SDS011;25175;50.140;18.990;2022-10-16T14:47:07;16.70;;;8.63;;
39490;SDS011;25175;50.140;18.990;2022-10-16T14:50:12;18.25;;;8.40;;
39490;SDS011;25175;50.140;18.990;2022-10-16T14:53:14;19.38;;;8.18;;
39490;SDS011;25175;50.140;18.990;2022-10-16T14:56:18;18.58;;;8.68;;
39490;SDS011;25175;50.140;18.990;2022-10-16T14:59:25;19.02;;;8.43;;
39490;SDS011;25175;50.140;18.990;2022-10-16T15:02:31;16.38;;;8.45;;
39490;SDS011;25175;50.140;18.990;2022-10-16T15:05:34;16.65;;;8.60;;
39490;SDS011;25175;50.140;18.990;2022-10-16T15:08:37;15.88;;;7.68;;
39490;SDS011;25175;50.140;18.990;2022-10-16T15:11:39;18.63;;;9.02;;
39490;SDS011;25175;50.140;18.990;2022-10-16T15:14:44;17.13;;;8.50;;
39490;SDS011;25175;50.140;18.990;2022-10-16T15:17:47;17.02;;;9.10;;
39490;SDS011;25175;50.140;18.990;2022-10-16T15:20:53;13.20;;;8.30;;
39490;SDS011;25175;50.140;18.990;2022-10-16T15:23:56;18.77;;;9.10;;
39490;SDS011;25175;50.140;18.990;2022-10-16T15:27:00;19.48;;;8.98;;
39490;SDS011;25175;50.140;18.990;2022-10-16T15:30:04;16.20;;;8.90;;
39490;SDS011;25175;50.140;18.990;2022-10-16T15:33:11;17.67;;;9.05;;
39490;SDS011;25175;50.140;18.990;2022-10-16T15:36:16;20.23;;;9.30;;
39490;SDS011;25175;50.140;18.990;2022-10-16T15:39:19;14.30;;;8.30;;
39490;SDS011;25175;50.140;18.990;2022-10-16T15:42:22;14.45;;;8.70;;
39490;SDS011;25175;50.140;18.990;2022-10-16T15:45:25;23.58;;;8.60;;
39490;SDS011;25175;50.140;18.990;2022-10-16T15:48:28;14.32;;;8.25;;
39490;SDS011;25175;50.140;18.990;2022-10-16T15:51:31;18.08;;;8.57;;
39490;SDS011;25175;50.140;18.990;2022-10-16T15:54:34;15.30;;;8.73;;
39490;SDS011;25175;50.140;18.990;2022-10-16T15:57:37;18.25;;;9.27;;
39490;SDS011;25175;50.140;18.990;2022-10-16T16:00:42;17.58;;;10.38;;
39490;SDS011;25175;50.140;18.990;2022-10-16T16:03:45;25.88;;;12.75;;
39490;SDS011;25175;50.140;18.990;2022-10-16T16:06:47;22.10;;;11.27;;
39490;SDS011;25175;50.140;18.990;2022-10-16T16:09:50;28.20;;;13.63;;
39490;SDS011;25175;50.140;18.990;2022-10-16T16:12:52;28.58;;;14.18;;
39490;SDS011;25175;50.140;18.990;2022-10-16T16:15:57;27.33;;;13.57;;
39490;SDS011;25175;50.140;18.990;2022-10-16T16:19:00;34.22;;;16.75;;
39490;SDS011;25175;50.140;18.990;2022-10-16T16:22:02;40.08;;;19.30;;
39490;SDS011;25175;50.140;18.990;2022-10-16T16:25:05;44.22;;;21.90;;
39490;SDS011;25175;50.140;18.990;2022-10-16T16:28:07;41.22;;;21.05;;
39490;SDS011;25175;50.140;18.990;2022-10-16T16:31:12;36.55;;;19.42;;
39490;SDS011;25175;50.140;18.990;2022-10-16T16:34:15;37.88;;;19.27;;
39490;SDS011;25175;50.140;18.990;2022-10-16T16:37:17;41.95;;;21.23;;
39490;SDS011;25175;50.140;18.990;2022-10-16T16:40:19;37.88;;;17.38;;
39490;SDS011;25175;50.140;18.990;2022-10-16T16:43:22;39.75;;;20.05;;
39490;SDS011;25175;50.140;18.990;2022-10-16T16:46:27;41.08;;;20.52;;
39490;SDS011;25175;50.140;18.990;2022-10-16T16:49:29;44.38;;;23.23;;
39490;SDS011;25175;50.140;18.990;2022-10-16T16:52:32;52.30;;;23.90;;
39490;SDS011;25175;50.140;18.990;2022-10-16T16:55:35;50.42;;;24.65;;
39490;SDS011;25175;50.140;18.990;2022-10-16T16:58:37;46.90;;;22.17;;
39490;SDS011;25175;50.140;18.990;2022-10-16T17:01:41;42.75;;;20.30;;
39490;SDS011;25175;50.140;18.990;2022-10-16T17:04:44;36.33;;;19.55;;
39490;SDS011;25175;50.140;18.990;2022-10-16T17:07:47;33.33;;;17.88;;
39490;SDS011;25175;50.140;18.990;2022-10-16T17:10:49;37.42;;;18.48;;
39490;SDS011;25175;50.140;18.990;2022-10-16T17:13:55;32.58;;;18.13;;
39490;SDS011;25175;50.140;18.990;2022-10-16T17:17:00;33.38;;;17.80;;
39490;SDS011;25175;50.140;18.990;2022-10-16T17:20:03;32.78;;;17.17;;
39490;SDS011;25175;50.140;18.990;2022-10-16T17:23:06;35.72;;;19.55;;
39490;SDS011;25175;50.140;18.990;2022-10-16T17:26:09;39.17;;;21.40;;
39490;SDS011;25175;50.140;18.990;2022-10-16T17:29:13;75.60;;;34.30;;
39490;SDS011;25175;50.140;18.990;2022-10-16T17:32:19;60.25;;;29.20;;
39490;SDS011;25175;50.140;18.990;2022-10-16T17:35:23;55.35;;;28.08;;
39490;SDS011;25175;50.140;18.990;2022-10-16T17:38:25;57.75;;;27.30;;
39490;SDS011;25175;50.140;18.990;2022-10-16T17:41:27;62.78;;;27.42;;
39490;SDS011;25175;50.140;18.990;2022-10-16T17:44:30;56.58;;;28.60;;
39490;SDS011;25175;50.140;18.990;2022-10-16T17:47:33;59.63;;;27.25;;
39490;SDS011;25175;50.140;18.990;2022-10-16T17:50:38;60.40;;;29.27;;
39490;SDS011;25175;50.140;18.990;2022-10-16T17:53:41;59.53;;;28.75;;
39490;SDS011;25175;50.140;18.990;2022-10-16T17:56:44;58.75;;;27.50;;
39490;SDS011;25175;50.140;18.990;2022-10-16T17:59:47;49.72;;;24.55;;
39490;SDS011;25175;50.140;18.990;2022-10-16T18:02:51;51.40;;;24.25;;
39490;SDS011;25175;50.140;18.990;2022-10-16T18:05:53;56.17;;;27.30;;
39490;SDS011;25175;50.140;18.990;2022-10-16T18:08:57;51.92;;;25.52;;
39490;SDS011;25175;50.140;18.990;2022-10-16T18:12:00;45.08;;;23.60;;
39490;SDS011;25175;50.140;18.990;2022-10-16T18:15:03;39.70;;;20.60;;